Time;durP1;ratioP1;P1;durP2;ratioP2;P2;SDS_P1;SDS_P2;PMS_P1;PMS_P2;Temp;Humidity;BMP_temperature;BMP_pressure;BME280_temperature;BME280_humidity;BME280_pressure;Samples;Min_cycle;Max_cycle;Signal;HPM_P1;HPM_P2
2022/06/16 00:01:01;;;;;;;7.70;3.23;;;;;;;18.73;54.70;101686.53;5188992;28;20117;-75
2022/06/16 00:03:32;;;;;;;5.82;3.47;;;;;;;18.66;54.60;101678.84;5189508;28;20034;-72
2022/06/16 00:06:03;;;;;;;7.63;3.33;;;;;;;18.55;54.46;101674.78;5189388;28;20023;-73
2022/06/16 00:08:35;;;;;;;12.47;3.63;;;;;;;18.59;54.29;101687.00;5256338;28;20046;-72
2022/06/16 00:11:19;;;;;;;5.90;3.17;;;;;;;18.68;54.25;101672.63;5189507;28;20542;-75
2022/06/16 00:13:51;;;;;;;5.80;3.75;;;;;;;18.47;54.65;101673.31;5188837;28;20714;-74
2022/06/16 00:16:23;;;;;;;6.95;3.60;;;;;;;18.30;55.04;101679.09;5189373;28;20031;-73
2022/06/16 00:18:55;;;;;;;8.30;3.55;;;;;;;18.61;55.03;101676.34;5189057;28;20026;-73
2022/06/16 00:21:26;;;;;;;8.10;3.63;;;;;;;18.52;54.31;101687.22;5189024;28;20117;-73
2022/06/16 00:23:57;;;;;;;9.93;3.53;;;;;;;18.33;55.50;101686.94;5189069;28;20042;-72
2022/06/16 00:26:29;;;;;;;7.17;3.80;;;;;;;18.48;54.42;101691.75;5188760;28;20042;-73
2022/06/16 00:29:00;;;;;;;8.53;3.87;;;;;;;18.25;54.77;101689.81;5188775;28;20031;-74
2022/06/16 00:31:36;;;;;;;6.43;3.70;;;;;;;18.26;54.79;101688.00;5289055;28;20043;-73
2022/06/16 00:34:07;;;;;;;9.35;3.50;;;;;;;18.09;55.42;101686.75;5188674;28;20026;-74
2022/06/16 00:36:38;;;;;;;6.00;4.00;;;;;;;17.83;54.81;101683.06;5188803;28;20044;-72
2022/06/16 00:39:10;;;;;;;7.93;3.90;;;;;;;17.80;55.29;101687.59;5189000;28;20031;-73
2022/06/16 00:41:41;;;;;;;8.33;3.50;;;;;;;17.82;55.63;101697.19;5188906;28;20034;-73
2022/06/16 00:44:15;;;;;;;6.87;3.90;;;;;;;17.52;55.82;101688.38;5188352;28;20068;-72
2022/06/16 00:46:47;;;;;;;7.05;3.80;;;;;;;17.50;56.30;101687.56;5188739;28;20071;-72
2022/06/16 00:49:18;;;;;;;8.45;3.78;;;;;;;17.49;55.79;101699.84;5188423;28;20166;-72
2022/06/16 00:51:54;;;;;;;8.17;4.30;;;;;;;17.48;56.81;101686.72;5188440;28;20123;-72
2022/06/16 00:54:32;;;;;;;7.30;3.55;;;;;;;17.61;56.85;101692.50;5188637;28;20049;-72
2022/06/16 00:57:20;;;;;;;9.48;4.30;;;;;;;17.29;56.37;101705.66;5257007;28;20018;-75
2022/06/16 00:59:52;;;;;;;8.23;3.80;;;;;;;17.24;57.20;101704.03;5191550;28;20172;-75
2022/06/16 01:02:26;;;;;;;5.97;3.90;;;;;;;17.37;56.39;101708.09;5191802;28;20038;-75
2022/06/16 01:04:58;;;;;;;8.95;4.38;;;;;;;17.01;57.18;101713.38;5191494;28;20282;-74
2022/06/16 01:07:38;;;;;;;9.83;4.17;;;;;;;16.87;57.13;101713.75;5191549;28;20073;-73
2022/06/16 01:10:10;;;;;;;9.40;4.47;;;;;;;17.03;57.17;101708.09;5191615;28;20452;-72
2022/06/16 01:16:14;;;;;;;8.73;4.05;;;;;;;17.13;57.43;101718.34;5191399;28;20038;-72
2022/06/16 01:19:17;;;;;;;6.68;3.95;;;;;;;17.09;56.81;101716.69;5191228;28;20053;-73
2022/06/16 01:21:51;;;;;;;8.73;5.00;;;;;;;16.92;57.52;101721.50;5191632;28;20026;-73
2022/06/16 01:25:10;;;;;;;8.10;4.07;;;;;;;16.78;57.49;101722.69;5191543;28;20037;-74
2022/06/16 01:27:50;;;;;;;10.38;4.28;;;;;;;16.84;58.37;101723.44;5212355;28;20384;-72
2022/06/16 01:30:33;;;;;;;6.60;3.50;;;;;;;16.62;58.03;101731.00;5212007;28;20539;-73
2022/06/16 01:33:35;;;;;;;9.98;4.57;;;;;;;16.65;57.76;101741.44;5212313;28;20052;-71
2022/06/16 01:36:38;;;;;;;7.63;4.07;;;;;;;16.64;57.73;101745.84;5212509;28;20129;-73
2022/06/16 01:39:18;;;;;;;6.18;4.47;;;;;;;16.54;59.16;101741.69;5171459;28;20050;-73
2022/06/16 01:41:52;;;;;;;6.40;4.13;;;;;;;16.41;58.76;101741.94;5171497;28;20039;-72
2022/06/16 01:44:58;;;;;;;13.25;5.10;;;;;;;16.50;58.40;101732.13;5155097;28;20132;-73
2022/06/16 01:47:32;;;;;;;7.38;4.70;;;;;;;16.17;59.80;101727.56;5111631;29;20043;-72
2022/06/16 01:50:13;;;;;;;7.50;4.50;;;;;;;16.10;59.97;101732.97;5111533;29;20577;-72
2022/06/16 01:52:51;;;;;;;9.63;4.88;;;;;;;16.04;60.79;101737.47;5111191;29;20562;-74
2022/06/16 01:55:37;;;;;;;10.10;4.68;;;;;;;15.95;61.29;101732.38;5111661;29;20111;-77
2022/06/16 01:58:12;;;;;;;8.65;5.22;;;;;;;15.96;60.66;101739.38;5127157;29;20157;-76
2022/06/16 02:00:46;;;;;;;9.40;5.00;;;;;;;15.79;61.35;101741.47;5150590;29;20070;-73
2022/06/16 02:03:24;;;;;;;7.35;4.63;;;;;;;15.73;61.83;101746.81;5150975;29;20135;-73
2022/06/16 02:06:12;;;;;;;8.82;4.90;;;;;;;15.66;61.76;101739.06;5150850;29;20035;-73
2022/06/16 02:08:48;;;;;;;7.00;4.53;;;;;;;15.59;61.81;101741.84;5150541;28;20174;-73
2022/06/16 02:11:31;;;;;;;8.88;4.43;;;;;;;15.62;62.58;101741.78;5150765;29;20412;-73
2022/06/16 02:14:02;;;;;;;6.95;4.70;;;;;;;15.52;62.96;101721.81;5150571;29;20067;-73
2022/06/16 02:16:36;;;;;;;8.90;5.27;;;;;;;15.42;63.03;101729.88;5168862;28;20576;-74
2022/06/16 02:19:12;;;;;;;12.48;4.78;;;;;;;15.32;63.53;101730.91;5170750;28;20065;-73
2022/06/16 02:21:49;;;;;;;8.82;4.50;;;;;;;15.35;63.50;101730.84;5170293;28;20113;-72
2022/06/16 02:24:24;;;;;;;9.00;4.30;;;;;;;15.45;64.45;101739.44;5185095;28;20428;-73
2022/06/16 02:26:57;;;;;;;10.88;5.07;;;;;;;15.22;64.72;101738.09;5190462;28;20483;-74
2022/06/16 02:29:34;;;;;;;10.68;5.10;;;;;;;15.17;64.13;101733.81;5190356;28;20038;-72
2022/06/16 02:32:11;;;;;;;8.18;5.10;;;;;;;15.22;65.26;101743.34;5190051;28;20030;-74
2022/06/16 02:35:02;;;;;;;7.30;4.90;;;;;;;14.95;65.18;101753.38;5190301;28;20049;-72
2022/06/16 02:37:53;;;;;;;8.05;4.70;;;;;;;14.92;65.69;101766.59;5190069;28;20091;-73
2022/06/16 02:40:50;;;;;;;10.15;5.57;;;;;;;14.84;65.80;101776.31;5190479;28;20031;-73
2022/06/16 02:43:29;;;;;;;9.07;5.55;;;;;;;14.83;66.09;101784.19;5190257;28;20038;-72
2022/06/16 02:46:15;;;;;;;9.60;5.22;;;;;;;14.69;66.21;101779.16;5189878;28;20483;-74
2022/06/16 02:48:57;;;;;;;11.77;5.25;;;;;;;14.61;66.83;101786.28;5190022;28;20034;-74
2022/06/16 02:52:07;;;;;;;6.20;5.00;;;;;;;14.73;66.14;101796.59;5190006;28;20030;-72
2022/06/16 02:54:50;;;;;;;8.85;4.90;;;;;;;14.66;66.79;101795.81;5189932;28;20438;-73
2022/06/16 02:57:27;;;;;;;8.27;5.38;;;;;;;14.64;66.91;101786.25;5190078;28;20919;-73
2022/06/16 03:00:07;;;;;;;9.13;5.20;;;;;;;14.56;67.27;101783.69;5190121;28;20462;-74
2022/06/16 03:02:40;;;;;;;7.55;4.78;;;;;;;14.41;67.75;101797.88;5189814;28;20479;-74
2022/06/16 03:05:14;;;;;;;9.48;4.40;;;;;;;14.41;67.37;101796.13;5189863;28;20019;-74
2022/06/16 03:07:46;;;;;;;7.43;5.00;;;;;;;14.44;67.64;101791.72;5189792;28;20030;-73
2022/06/16 03:10:50;;;;;;;9.23;6.00;;;;;;;14.23;67.63;101799.84;5189513;28;20049;-74
2022/06/16 03:13:09;;;;;;;9.38;6.13;;;;;;;14.39;68.01;101791.75;5189932;28;20039;-73
2022/06/16 03:15:40;;;;;;;6.73;4.73;;;;;;;14.36;67.91;101790.06;5189738;28;20073;-74
2022/06/16 03:18:11;;;;;;;6.27;4.23;;;;;;;14.21;67.95;101791.09;5189428;28;20369;-72
2022/06/16 03:20:42;;;;;;;8.77;5.50;;;;;;;14.47;68.50;101791.66;5189025;28;20030;-72
2022/06/16 03:23:14;;;;;;;11.50;5.07;;;;;;;14.51;68.45;101788.13;5189355;28;20441;-71
2022/06/16 03:25:46;;;;;;;6.53;5.23;;;;;;;14.21;68.35;101793.72;5189406;28;20030;-73
2022/06/16 03:28:18;;;;;;;9.53;6.30;;;;;;;14.48;68.56;101799.53;5189303;28;20476;-72
2022/06/16 03:30:49;;;;;;;7.78;5.18;;;;;;;14.23;69.21;101791.06;5189163;28;20046;-74
2022/06/16 03:33:20;;;;;;;9.23;5.00;;;;;;;14.17;69.39;101789.41;5188758;28;20384;-74
2022/06/16 03:35:52;;;;;;;7.87;5.53;;;;;;;14.19;69.49;101786.78;5189109;28;20076;-73
2022/06/16 03:38:41;;;;;;;9.63;5.50;;;;;;;13.95;69.50;101786.16;5189333;28;20535;-75
2022/06/16 03:41:12;;;;;;;7.50;5.45;;;;;;;13.88;70.03;101794.09;5189067;28;20056;-73
2022/06/16 03:43:44;;;;;;;8.03;5.53;;;;;;;13.88;69.98;101805.47;5189115;28;20056;-73
2022/06/16 03:46:16;;;;;;;6.57;5.33;;;;;;;13.83;70.37;101808.13;5189493;28;20022;-74
2022/06/16 03:48:47;;;;;;;8.23;5.65;;;;;;;13.90;70.35;101819.41;5189191;28;20031;-72
2022/06/16 03:51:19;;;;;;;9.43;5.93;;;;;;;13.74;70.72;101823.94;5188922;28;20049;-72
2022/06/16 03:53:50;;;;;;;10.17;5.73;;;;;;;13.75;69.66;101824.78;5188844;28;20049;-72
2022/06/16 03:56:22;;;;;;;9.33;6.13;;;;;;;13.71;69.73;101817.84;5189273;28;20026;-74
2022/06/16 03:58:55;;;;;;;11.00;6.60;;;;;;;13.75;69.88;101833.53;5188777;28;20038;-74
2022/06/16 04:01:27;;;;;;;10.02;6.15;;;;;;;13.78;70.70;101830.91;5189052;28;20062;-74
2022/06/16 04:04:01;;;;;;;10.37;6.50;;;;;;;13.83;71.02;101834.34;5188711;28;20552;-75
2022/06/16 04:06:34;;;;;;;11.73;6.68;;;;;;;13.68;70.41;101837.97;5188908;28;20560;-75
2022/06/16 04:09:06;;;;;;;11.65;6.30;;;;;;;13.77;70.22;101842.25;5186365;28;20043;-73
2022/06/16 04:11:37;;;;;;;14.00;6.97;;;;;;;13.77;69.68;101842.25;5190854;28;20042;-71
2022/06/16 04:14:12;;;;;;;12.10;6.37;;;;;;;13.73;70.10;101850.16;5188596;28;20026;-72
2022/06/16 04:16:49;;;;;;;9.50;6.90;;;;;;;13.79;70.39;101848.34;5187352;28;20490;-72
2022/06/16 04:19:21;;;;;;;7.72;6.50;;;;;;;13.73;70.44;101845.75;5188231;28;20030;-74
2022/06/16 04:21:53;;;;;;;8.75;6.70;;;;;;;13.77;70.93;101849.25;5187458;28;20061;-73
2022/06/16 04:24:24;;;;;;;12.27;7.47;;;;;;;13.77;70.36;101850.09;5187165;28;20087;-74
2022/06/16 04:26:57;;;;;;;13.93;6.53;;;;;;;13.69;70.35;101849.31;5188373;28;20422;-74
2022/06/16 04:29:28;;;;;;;;;;;;;;;13.93;68.52;101852.59;5188324;28;20087;-72
2022/06/16 04:32:00;;;;;;;8.65;6.28;;;;;;;13.65;69.60;101853.72;5190073;28;19918;-71
2022/06/16 04:34:31;;;;;;;9.67;6.20;;;;;;;13.88;71.95;101859.63;5191349;28;20029;-72
2022/06/16 04:37:03;;;;;;;10.40;6.50;;;;;;;13.78;69.91;101859.72;5191655;28;20063;-71
2022/06/16 04:39:34;;;;;;;12.03;7.77;;;;;;;13.76;70.01;101864.09;5190540;28;20041;-72
2022/06/16 04:42:06;;;;;;;8.97;6.13;;;;;;;13.78;70.12;101872.81;5191217;28;20078;-71
2022/06/16 04:44:39;;;;;;;9.07;5.63;;;;;;;13.82;69.94;101876.28;5191721;28;20026;-73
2022/06/16 04:47:10;;;;;;;13.13;6.90;;;;;;;13.99;71.12;101876.09;5191629;28;20091;-72
2022/06/16 04:49:43;;;;;;;8.67;5.87;;;;;;;13.87;69.52;101882.34;5191544;28;20464;-71
2022/06/16 04:52:17;;;;;;;9.40;7.32;;;;;;;13.86;69.74;101883.22;5191768;28;20331;-71
2022/06/16 04:54:49;;;;;;;13.45;7.05;;;;;;;13.91;69.84;101881.44;5191817;28;20042;-72
2022/06/16 04:57:22;;;;;;;9.73;6.35;;;;;;;13.93;70.07;101882.28;5191421;28;20087;-71
2022/06/16 04:59:53;;;;;;;12.07;6.85;;;;;;;14.12;71.88;101884.72;5191614;28;20049;-75
2022/06/16 05:02:24;;;;;;;10.60;5.97;;;;;;;14.09;68.82;101888.25;5191441;28;20026;-72
2022/06/16 05:04:56;;;;;;;10.13;6.67;;;;;;;14.08;68.22;101888.28;5191607;28;20026;-72
2022/06/16 05:07:28;;;;;;;14.75;7.30;;;;;;;14.14;68.61;101898.72;5191419;28;20038;-73
2022/06/16 05:09:59;;;;;;;10.53;6.50;;;;;;;14.28;69.91;101898.56;5190823;28;20097;-73
2022/06/16 05:12:30;;;;;;;8.07;6.70;;;;;;;14.25;67.86;101909.06;5191500;28;20038;-72
2022/06/16 05:15:02;;;;;;;11.77;6.30;;;;;;;14.43;69.38;101898.41;5191336;28;20022;-73
2022/06/16 05:17:34;;;;;;;10.97;6.53;;;;;;;14.52;67.63;101903.56;5191155;28;20543;-71
2022/06/16 05:20:06;;;;;;;13.93;7.68;;;;;;;14.52;67.50;101911.44;5190949;28;20026;-72
2022/06/16 05:22:37;;;;;;;9.30;6.80;;;;;;;14.56;67.01;101914.88;5190768;28;20038;-73
2022/06/16 05:25:09;;;;;;;10.73;6.90;;;;;;;14.61;66.29;101915.72;5191389;28;20323;-71
2022/06/16 05:27:40;;;;;;;10.03;6.30;;;;;;;14.71;66.10;101914.72;5190910;28;20057;-71
2022/06/16 05:30:12;;;;;;;11.33;6.27;;;;;;;14.78;65.58;101918.16;5191081;28;20435;-71
2022/06/16 05:32:45;;;;;;;8.82;6.93;;;;;;;14.73;65.08;101920.84;5190715;28;20076;-72
2022/06/16 05:35:16;;;;;;;7.97;6.37;;;;;;;14.92;66.04;101925.84;5191205;28;20027;-73
2022/06/16 05:37:48;;;;;;;9.07;6.50;;;;;;;14.89;65.40;101931.13;5191019;28;20030;-71
2022/06/16 05:40:19;;;;;;;10.37;5.57;;;;;;;14.97;63.44;101925.78;5190722;28;20029;-72
2022/06/16 05:42:51;;;;;;;13.87;6.87;;;;;;;15.00;63.70;101926.63;5190173;28;20034;-71
2022/06/16 05:45:22;;;;;;;10.83;6.77;;;;;;;15.07;64.07;101936.16;5190823;28;20133;-73
2022/06/16 05:47:53;;;;;;;8.67;5.93;;;;;;;15.02;62.97;101930.09;5190619;28;20037;-73
2022/06/16 05:50:25;;;;;;;9.50;5.67;;;;;;;15.26;63.73;101949.03;5190636;28;20491;-71
2022/06/16 05:52:57;;;;;;;13.07;6.30;;;;;;;15.19;62.68;101950.03;5257649;28;20497;-72
2022/06/16 05:55:28;;;;;;;9.67;5.60;;;;;;;15.24;61.20;101950.81;5191079;28;20038;-72
2022/06/16 05:58:01;;;;;;;8.90;5.67;;;;;;;15.38;61.67;101943.63;5190544;28;20030;-73
2022/06/16 06:00:33;;;;;;;7.28;4.88;;;;;;;15.37;58.91;101946.25;5189920;28;20034;-72
2022/06/16 06:03:04;;;;;;;10.50;5.57;;;;;;;15.46;59.04;101952.25;5190499;28;20041;-71
2022/06/16 06:05:36;;;;;;;9.03;5.07;;;;;;;15.65;59.28;101949.38;5190583;28;20030;-71
2022/06/16 06:16:41;;;;;;;8.40;4.38;;;;;;;15.84;56.82;101958.72;5190479;28;20096;-72
2022/06/16 06:19:23;;;;;;;8.80;4.30;;;;;;;15.98;55.92;101960.25;5190278;28;20026;-73
2022/06/16 06:22:02;;;;;;;8.37;4.17;;;;;;;15.98;55.63;101961.13;5189897;28;20037;-73
2022/06/16 06:24:37;;;;;;;10.35;5.00;;;;;;;16.06;55.25;101968.03;5190184;28;20124;-71
2022/06/16 06:27:21;;;;;;;8.20;4.30;;;;;;;16.15;55.65;101965.25;5189904;28;20039;-72
2022/06/16 06:29:52;;;;;;;7.65;4.32;;;;;;;16.21;55.00;101963.38;5190245;28;20026;-71
2022/06/16 06:32:25;;;;;;;10.33;3.67;;;;;;;16.30;53.22;101966.72;5190148;28;20155;-71
2022/06/16 06:34:57;;;;;;;;;;;;;;;16.48;54.70;101970.78;5190401;28;20150;-71
2022/06/16 06:37:28;;;;;;;5.93;3.55;;;;;;;16.62;54.87;101974.03;5189776;28;20432;-72
2022/06/16 06:39:59;;;;;;;5.47;3.20;;;;;;;16.68;53.99;101970.41;5190240;28;20479;-72
2022/06/16 06:42:31;;;;;;;7.10;3.17;;;;;;;16.69;51.33;101973.00;5190280;28;20038;-74
2022/06/16 06:45:03;;;;;;;6.37;3.50;;;;;;;16.73;52.14;101966.78;5190065;28;20360;-72
2022/06/16 06:47:34;;;;;;;7.57;3.53;;;;;;;16.83;53.02;101979.78;5190074;28;20023;-72
2022/06/16 06:50:06;;;;;;;6.63;3.13;;;;;;;16.88;50.27;101976.19;5190264;28;20116;-73
2022/06/16 06:52:37;;;;;;;7.22;3.33;;;;;;;16.97;50.17;101974.25;5189881;28;20030;-72
2022/06/16 06:55:09;;;;;;;6.50;2.87;;;;;;;17.07;49.76;101986.34;5188588;28;20050;-72
2022/06/16 06:57:40;;;;;;;7.43;2.87;;;;;;;17.16;50.11;101974.75;5189675;28;20018;-72
2022/06/16 07:00:14;;;;;;;8.63;3.07;;;;;;;17.23;49.05;101984.25;5189637;28;20030;-71
2022/06/16 07:02:46;;;;;;;6.72;2.88;;;;;;;17.36;48.67;101988.38;5256622;28;20399;-70
2022/06/16 07:05:17;;;;;;;7.37;2.97;;;;;;;17.50;48.58;101988.91;5189385;28;20030;-73
2022/06/16 07:07:48;;;;;;;4.30;2.60;;;;;;;17.61;49.20;101996.59;5189093;28;20062;-72
2022/06/16 07:10:19;;;;;;;7.80;2.60;;;;;;;17.68;49.55;102003.44;5189503;28;20601;-71
2022/06/16 07:12:51;;;;;;;7.47;3.80;;;;;;;17.62;48.01;102000.94;5189836;28;20026;-71
2022/06/16 07:15:23;;;;;;;5.07;2.93;;;;;;;17.69;48.53;102012.22;5189576;28;20035;-73
2022/06/16 07:17:54;;;;;;;5.90;2.90;;;;;;;17.71;47.80;102013.06;5189542;28;20034;-70
2022/06/16 07:20:25;;;;;;;6.63;2.93;;;;;;;17.74;47.45;102012.13;5189788;28;20034;-72
2022/06/16 07:22:57;;;;;;;5.73;2.73;;;;;;;17.85;48.33;102018.91;5189381;28;20050;-72
2022/06/16 07:25:28;;;;;;;11.27;3.87;;;;;;;17.96;47.49;102023.06;5189205;28;20479;-72
2022/06/16 07:28:00;;;;;;;11.27;3.57;;;;;;;18.08;47.92;102022.78;5189295;28;20033;-73
2022/06/16 07:30:32;;;;;;;7.25;2.92;;;;;;;18.21;47.89;102026.84;5189435;28;20112;-72
2022/06/16 07:33:03;;;;;;;5.90;3.03;;;;;;;18.34;48.05;102031.81;5189736;28;20109;-71
2022/06/16 07:35:36;;;;;;;6.27;2.60;;;;;;;18.49;48.15;102039.34;5189241;28;20069;-73
2022/06/16 07:38:08;;;;;;;7.70;2.63;;;;;;;18.51;47.27;102050.72;5254941;28;20026;-72
2022/06/16 07:40:40;;;;;;;6.40;2.70;;;;;;;18.66;49.42;102053.84;5189120;28;20432;-73
2022/06/16 07:43:11;;;;;;;5.50;2.57;;;;;;;18.80;47.28;102061.44;5189075;28;20044;-72
2022/06/16 07:45:42;;;;;;;7.70;3.17;;;;;;;18.80;46.23;102064.94;5189093;28;20433;-73
2022/06/16 07:48:15;;;;;;;7.93;2.87;;;;;;;18.79;43.99;102060.56;5189248;28;20113;-71
2022/06/16 07:50:47;;;;;;;7.38;3.17;;;;;;;18.76;47.79;102060.66;5189231;28;20109;-73
2022/06/16 07:53:18;;;;;;;6.97;3.10;;;;;;;18.73;45.72;102061.59;5188965;28;20098;-73
2022/06/16 07:55:49;;;;;;;6.33;2.93;;;;;;;18.77;45.31;102062.38;5188962;28;20109;-72
2022/06/16 07:58:21;;;;;;;5.83;3.13;;;;;;;18.83;47.40;102071.91;5188916;28;20484;-73
2022/06/16 08:00:52;;;;;;;5.67;2.73;;;;;;;18.73;45.53;102066.88;5188905;28;20073;-73
2022/06/16 08:03:26;;;;;;;5.63;3.37;;;;;;;18.80;44.91;102072.84;5189041;28;20487;-73
2022/06/16 08:05:58;;;;;;;6.20;2.80;;;;;;;19.05;46.67;102081.03;5190276;28;20034;-73
2022/06/16 08:08:29;;;;;;;7.43;3.00;;;;;;;19.15;46.27;102078.97;5192353;28;20041;-73
2022/06/16 08:11:01;;;;;;;7.23;2.73;;;;;;;19.22;46.09;102077.88;5192212;28;20170;-71
2022/06/16 08:13:32;;;;;;;8.93;2.90;;;;;;;19.33;45.63;102076.72;5192566;28;20113;-73
2022/06/16 08:16:04;;;;;;;6.87;3.13;;;;;;;19.33;44.42;102088.16;5192168;28;20111;-73
2022/06/16 08:18:35;;;;;;;6.03;2.63;;;;;;;19.40;44.50;102088.84;5192365;28;20042;-72
2022/06/16 08:21:06;;;;;;;5.23;2.70;;;;;;;19.22;43.60;102080.53;5192096;28;20515;-72
2022/06/16 08:23:38;;;;;;;7.70;3.17;;;;;;;19.50;44.95;102080.59;5192423;28;20030;-72
2022/06/16 08:26:10;;;;;;;6.80;2.87;;;;;;;19.52;43.63;102080.56;5258774;28;20562;-73
2022/06/16 08:28:42;;;;;;;5.07;2.45;;;;;;;19.62;42.16;102076.72;5192369;28;20030;-72
2022/06/16 08:31:17;;;;;;;;;;;;;;;19.90;44.07;102072.41;5193195;28;20040;-73
2022/06/16 08:33:49;;;;;;;6.88;2.45;;;;;;;19.79;43.22;102065.66;5191882;28;19918;-73
2022/06/16 08:36:22;;;;;;;5.85;2.50;;;;;;;19.75;42.86;102063.97;5192179;28;20035;-72
2022/06/16 08:38:53;;;;;;;6.15;2.60;;;;;;;19.89;43.46;102055.66;5192325;28;20149;-78
2022/06/16 08:41:37;;;;;;;8.50;2.50;;;;;;;20.09;42.94;102057.66;5192136;28;20168;-72
2022/06/16 08:44:15;;;;;;;7.75;3.08;;;;;;;20.19;43.50;102060.91;5192158;28;20026;-72
2022/06/16 08:47:02;;;;;;;4.72;2.60;;;;;;;20.23;41.28;102065.16;5191880;28;20108;-73
2022/06/16 08:50:03;;;;;;;7.13;2.75;;;;;;;20.28;41.91;102071.16;5191757;28;20084;-71
2022/06/16 08:52:46;;;;;;;6.25;2.72;;;;;;;20.61;43.24;102072.72;5191618;28;20155;-73
2022/06/16 08:55:37;;;;;;;5.75;2.20;;;;;;;20.70;42.66;102080.38;5191696;28;20160;-71
2022/06/16 08:58:45;;;;;;;9.82;2.45;;;;;;;20.75;43.23;102079.31;5191625;28;20050;-72
2022/06/16 09:01:25;;;;;;;13.20;2.95;;;;;;;20.71;43.13;102100.69;5191548;28;20145;-71
2022/06/16 09:04:02;;;;;;;9.50;3.05;;;;;;;20.76;40.63;102096.94;5191815;28;20038;-72
2022/06/16 09:06:52;;;;;;;6.80;2.50;;;;;;;20.76;41.33;102096.06;5191572;28;20034;-72
2022/06/16 09:12:40;;;;;;;11.20;3.53;;;;;;;21.05;41.41;102110.94;5191967;28;20437;-72
2022/06/16 09:15:11;;;;;;;8.70;2.83;;;;;;;21.09;41.53;102098.44;5191442;28;20069;-71
2022/06/16 09:18:01;;;;;;;6.50;2.50;;;;;;;21.23;44.27;102104.09;5190442;28;20109;-72
2022/06/16 09:20:37;;;;;;;5.70;2.60;;;;;;;21.20;40.07;102096.25;5259156;28;20038;-72
2022/06/16 09:23:38;;;;;;;4.85;2.60;;;;;;;21.23;39.88;102108.56;5191354;28;20045;-72
2022/06/16 09:26:28;;;;;;;5.82;2.55;;;;;;;21.33;40.15;102117.03;5191610;28;20061;-72
2022/06/16 09:29:06;;;;;;;13.95;4.45;;;;;;;21.16;39.39;102110.56;5191335;28;20450;-72
2022/06/16 09:31:48;;;;;;;6.78;3.05;;;;;;;21.42;41.47;102112.25;5191526;28;20035;-72
2022/06/16 09:34:27;;;;;;;7.05;3.10;;;;;;;21.47;39.72;102112.09;5191829;28;20410;-70
2022/06/16 09:37:05;;;;;;;4.63;2.72;;;;;;;21.60;40.93;102107.22;5191910;28;20058;-73
2022/06/16 09:39:46;;;;;;;6.75;3.00;;;;;;;21.49;38.31;102108.50;5191173;28;20418;-71
2022/06/16 09:42:32;;;;;;;6.25;2.80;;;;;;;21.85;40.36;102112.44;5191127;28;20030;-74
2022/06/16 09:45:35;;;;;;;8.10;4.15;;;;;;;22.07;40.42;102115.09;5190783;28;20030;-72
2022/06/16 09:48:17;;;;;;;7.47;3.15;;;;;;;22.31;38.93;102112.41;5191013;28;20080;-72
2022/06/16 09:50:57;;;;;;;7.00;3.47;;;;;;;22.26;40.43;102117.88;5191345;28;20053;-73
2022/06/16 09:53:36;;;;;;;7.05;2.92;;;;;;;22.08;38.71;102116.84;5191160;28;20034;-72
2022/06/16 09:56:13;;;;;;;7.55;2.95;;;;;;;22.46;41.09;102110.91;5190917;28;20042;-72
2022/06/16 09:58:53;;;;;;;6.90;3.25;;;;;;;22.47;38.96;102112.66;5190774;28;20035;-73
2022/06/16 10:01:29;;;;;;;9.45;3.53;;;;;;;22.10;37.40;102106.16;5191036;28;20040;-72
2022/06/16 10:04:06;;;;;;;8.82;3.70;;;;;;;22.35;38.24;102116.69;5191207;28;20032;-73
2022/06/16 10:06:53;;;;;;;6.85;3.60;;;;;;;22.65;38.50;102118.97;5191012;28;20030;-71
2022/06/16 10:09:47;;;;;;;6.05;3.22;;;;;;;22.71;38.83;102124.03;5190453;28;20054;-72
2022/06/16 10:12:37;;;;;;;10.13;4.07;;;;;;;22.89;39.77;102117.94;5190238;28;20034;-71
2022/06/16 10:15:20;;;;;;;5.30;2.40;;;;;;;23.53;40.61;102110.66;5190892;28;20168;-73
2022/06/16 10:17:52;;;;;;;12.88;4.05;;;;;;;23.49;37.95;102115.28;5190474;28;20543;-71
2022/06/16 10:20:24;;;;;;;8.77;3.53;;;;;;;23.25;36.97;102117.25;5191010;28;20034;-73
2022/06/16 10:23:00;;;;;;;;;;;;;;;23.68;37.13;102119.72;5190788;28;20042;-73
2022/06/16 10:25:36;;;;;;;8.55;4.50;;;;;;;23.61;39.31;102121.81;5190463;28;20090;-72
2022/06/16 10:28:29;;;;;;;8.43;4.10;;;;;;;23.35;36.51;102122.16;5190572;28;20544;-71
2022/06/16 10:31:03;;;;;;;7.43;3.38;;;;;;;23.71;38.05;102124.91;5190632;28;20114;-72
2022/06/16 10:33:53;;;;;;;7.97;3.33;;;;;;;23.93;37.04;102134.59;5257214;28;20125;-72
2022/06/16 10:36:26;;;;;;;6.97;4.10;;;;;;;24.18;36.16;102127.13;5190098;28;20080;-72
2022/06/16 10:39:16;;;;;;;6.85;3.60;;;;;;;24.71;37.63;102128.09;5190255;28;20060;-71
2022/06/16 10:42:05;;;;;;;10.13;4.95;;;;;;;24.52;35.65;102120.13;5189814;28;20035;-71
2022/06/16 10:44:38;;;;;;;7.43;3.10;;;;;;;24.98;36.02;102129.38;5256969;28;20190;-73
2022/06/16 10:47:19;;;;;;;8.05;4.25;;;;;;;25.06;34.90;102121.84;5190191;28;20403;-72
2022/06/16 10:49:51;;;;;;;10.30;3.40;;;;;;;25.57;40.37;102127.16;5190163;28;20573;-73
2022/06/16 10:52:51;;;;;;;9.60;3.47;;;;;;;25.87;36.20;102118.38;5190258;28;20034;-71
2022/06/16 10:55:29;;;;;;;6.10;3.28;;;;;;;26.51;34.38;102113.81;5190209;28;20030;-74
2022/06/16 10:58:29;;;;;;;11.48;3.70;;;;;;;26.59;33.20;102122.25;5189846;28;20025;-71
2022/06/16 11:01:20;;;;;;;9.15;3.42;;;;;;;26.90;33.05;102120.41;5190414;28;20484;-71
2022/06/16 11:04:05;;;;;;;7.43;3.97;;;;;;;27.25;31.53;102123.59;5189910;28;20039;-73
2022/06/16 11:06:51;;;;;;;8.07;4.15;;;;;;;26.47;31.28;102117.63;5190070;28;20026;-71
2022/06/16 11:09:28;;;;;;;9.32;3.28;;;;;;;27.47;31.61;102116.94;5189707;28;20403;-73
2022/06/16 11:12:15;;;;;;;8.35;3.17;;;;;;;28.55;32.63;102118.78;5189795;28;20065;-73
2022/06/16 11:14:54;;;;;;;6.10;3.15;;;;;;;28.84;29.43;102115.13;5190169;28;20121;-73
2022/06/16 11:17:34;;;;;;;6.65;2.80;;;;;;;29.31;30.37;102104.69;5189752;28;20038;-72
2022/06/16 11:20:35;;;;;;;5.85;3.15;;;;;;;29.53;28.10;102107.56;5189814;28;20780;-72
2022/06/16 11:23:22;;;;;;;5.97;3.22;;;;;;;30.77;28.07;102115.38;5209943;28;20076;-72
2022/06/16 11:25:59;;;;;;;8.63;3.63;;;;;;;30.15;26.29;102114.63;5210128;28;20029;-73
2022/06/16 11:28:30;;;;;;;6.65;3.13;;;;;;;31.07;27.62;102104.06;5210149;28;20487;-73
2022/06/16 11:31:06;;;;;;;;;;;;;;;33.04;27.21;102103.00;5210623;28;20046;-74
2022/06/16 11:36:46;;;;;;;7.15;3.30;;;;;;;32.79;25.06;102109.69;5209998;28;20046;-74
2022/06/16 11:39:42;;;;;;;6.82;2.90;;;;;;;33.75;24.41;102104.81;5209715;28;20069;-73
2022/06/16 11:42:51;;;;;;;8.07;2.63;;;;;;;34.09;22.49;102098.16;5209018;28;20030;-72
2022/06/16 11:45:36;;;;;;;9.63;3.33;;;;;;;32.20;24.92;102094.94;5209756;28;20040;-72
2022/06/16 11:48:38;;;;;;;6.78;2.47;;;;;;;32.39;24.35;102101.44;5209551;28;20103;-73
2022/06/16 11:51:19;;;;;;;;;;;;;;;34.09;22.54;102103.56;5209809;28;20121;-71
2022/06/16 11:54:07;;;;;;;5.88;3.47;;;;;;;31.49;24.98;102108.78;5192926;28;19917;-73
2022/06/16 11:57:02;;;;;;;5.68;2.85;;;;;;;31.60;26.81;102105.25;5209304;28;20030;-73
2022/06/16 11:59:49;;;;;;;4.63;2.70;;;;;;;31.11;26.51;102109.16;5198448;28;20583;-72
2022/06/16 12:02:44;;;;;;;7.00;3.20;;;;;;;31.84;26.69;102118.53;5188744;28;20037;-72
2022/06/16 12:05:33;;;;;;;6.28;3.35;;;;;;;31.42;24.18;102121.91;5189069;28;20035;-73
2022/06/16 12:08:28;;;;;;;8.15;3.35;;;;;;;32.10;25.13;102108.31;5188645;28;20135;-72
2022/06/16 12:11:10;;;;;;;8.75;2.80;;;;;;;31.74;26.55;102112.22;5188927;28;20459;-73
2022/06/16 12:13:55;;;;;;;;;;;;;;;33.13;22.56;102108.56;5256229;28;20042;-73
2022/06/16 12:16:39;;;;;;;4.68;2.45;;;;;;;31.29;24.47;102112.25;5189143;28;19921;-74
2022/06/16 12:19:35;;;;;;;8.43;3.50;;;;;;;30.67;26.38;102107.16;5188969;28;20140;-74
2022/06/16 12:22:23;;;;;;;7.38;3.20;;;;;;;31.06;26.25;102117.63;5189112;28;20062;-74
2022/06/16 12:25:01;;;;;;;6.68;3.03;;;;;;;31.25;24.70;102131.34;5188587;28;20038;-72
2022/06/16 12:27:50;;;;;;;9.10;3.20;;;;;;;31.37;26.08;102132.19;5189050;28;20030;-73
2022/06/16 12:30:47;;;;;;;8.60;3.22;;;;;;;31.72;25.61;102138.41;5189570;28;20030;-74